Time;durP1;ratioP1;P1;durP2;ratioP2;P2;SDS_P1;SDS_P2;PMS_P1;PMS_P2;Temp;Humidity;BMP_temperature;BMP_pressure;BME280_temperature;BME280_humidity;BME280_pressure;Samples;Min_cycle;Max_cycle;Signal;HPM_P1;HPM_P2
2021/10/10 00:00:19;;;;;;;27.67;21.50;;;5.70;99.90;;;;;;5032040;28;20483;-67
2021/10/10 00:02:46;;;;;;;27.90;20.60;;;5.60;99.90;;;;;;5031659;28;20441;-68
2021/10/10 00:05:13;;;;;;;26.97;19.70;;;5.60;99.90;;;;;;5031212;28;20445;-65
2021/10/10 00:07:41;;;;;;;27.13;21.30;;;5.50;99.90;;;;;;5031067;28;20467;-67
2021/10/10 00:10:10;;;;;;;26.20;19.67;;;5.50;99.90;;;;;;5029293;28;20487;-66
2021/10/10 00:12:37;;;;;;;26.90;21.13;;;5.40;99.90;;;;;;5029908;28;20487;-66
2021/10/10 00:15:05;;;;;;;27.53;21.30;;;5.50;99.90;;;;;;5030913;28;20437;-66
2021/10/10 00:17:32;;;;;;;25.80;20.40;;;5.50;99.90;;;;;;5030387;28;20471;-67
2021/10/10 00:19:58;;;;;;;23.03;20.60;;;5.50;99.90;;;;;;5031043;28;20444;-65
2021/10/10 00:22:25;;;;;;;27.73;21.77;;;5.40;99.90;;;;;;5030875;28;20470;-68
2021/10/10 00:24:52;;;;;;;25.77;20.53;;;5.40;99.90;;;;;;5032319;28;20447;-66
2021/10/10 00:27:21;;;;;;;23.83;21.23;;;5.60;99.90;;;;;;5032186;28;20824;-66
2021/10/10 00:29:49;;;;;;;27.50;20.37;;;5.60;99.90;;;;;;5030705;28;20452;-66
2021/10/10 00:32:16;;;;;;;23.20;20.33;;;5.50;99.90;;;;;;5030796;28;20531;-66
2021/10/10 00:34:42;;;;;;;24.57;19.90;;;5.50;99.90;;;;;;5030958;28;20447;-66
2021/10/10 00:37:09;;;;;;;26.57;21.50;;;5.50;99.90;;;;;;5030349;28;20468;-65
2021/10/10 00:39:36;;;;;;;24.37;20.53;;;5.50;99.90;;;;;;5030217;28;20463;-66
2021/10/10 00:42:07;;;;;;;23.00;19.93;;;5.60;99.90;;;;;;5030243;28;21016;-66
2021/10/10 00:44:35;;;;;;;31.80;20.97;;;5.50;99.90;;;;;;5030246;28;20452;-66
2021/10/10 00:47:03;;;;;;;25.60;19.47;;;5.50;99.90;;;;;;5030074;28;20467;-66
2021/10/10 00:49:29;;;;;;;24.73;20.73;;;5.40;99.90;;;;;;5030386;28;20483;-66
2021/10/10 00:51:59;;;;;;;19.97;17.77;;;5.40;99.90;;;;;;5030320;28;20433;-66
2021/10/10 00:54:28;;;;;;;28.30;20.13;;;5.40;99.90;;;;;;5031140;28;20437;-65
2021/10/10 00:56:57;;;;;;;22.50;18.57;;;5.30;99.90;;;;;;5040128;28;21140;-65
2021/10/10 00:59:25;;;;;;;22.73;20.23;;;5.20;99.90;;;;;;5030321;28;20444;-65
2021/10/10 01:01:53;;;;;;;24.20;19.57;;;5.20;99.90;;;;;;5029284;28;20839;-66
2021/10/10 01:04:20;;;;;;;22.83;18.87;;;5.20;99.90;;;;;;5030240;28;20445;-65
2021/10/10 01:06:47;;;;;;;24.20;18.67;;;5.20;99.90;;;;;;5029462;28;20448;-66
2021/10/10 01:09:15;;;;;;;21.80;18.60;;;5.10;99.90;;;;;;5030305;28;20441;-65
2021/10/10 01:11:43;;;;;;;31.03;21.33;;;5.10;99.90;;;;;;5029379;28;20809;-66
2021/10/10 01:14:11;;;;;;;24.63;20.03;;;5.10;99.90;;;;;;5030024;28;20463;-65
2021/10/10 01:16:38;;;;;;;25.57;20.70;;;5.10;99.90;;;;;;5029797;28;20449;-65
2021/10/10 01:19:07;;;;;;;28.73;20.80;;;5.00;99.90;;;;;;5028912;28;20949;-66
2021/10/10 01:21:36;;;;;;;23.13;19.00;;;5.00;99.90;;;;;;5030196;28;20488;-65
2021/10/10 01:24:03;;;;;;;23.27;19.73;;;4.90;99.90;;;;;;5029962;28;20437;-65
2021/10/10 01:26:31;;;;;;;24.13;19.70;;;5.00;99.90;;;;;;5039225;28;20452;-64
2021/10/10 01:28:58;;;;;;;24.73;19.07;;;5.00;99.90;;;;;;5033795;28;20464;-65
2021/10/10 01:31:24;;;;;;;20.77;16.70;;;4.90;99.90;;;;;;5030431;28;20441;-65
2021/10/10 01:33:53;;;;;;;20.60;17.40;;;4.90;99.90;;;;;;5030077;28;20539;-65
2021/10/10 01:36:21;;;;;;;24.00;17.60;;;4.90;99.90;;;;;;5029951;28;20456;-70
2021/10/10 01:38:49;;;;;;;22.30;19.50;;;4.80;99.90;;;;;;5030224;28;20873;-65
2021/10/10 01:41:16;;;;;;;24.97;19.30;;;4.70;99.90;;;;;;5030191;28;20490;-65
2021/10/10 01:43:43;;;;;;;26.10;20.80;;;4.60;99.90;;;;;;5030126;28;20455;-66
2021/10/10 01:46:10;;;;;;;25.20;20.30;;;4.60;99.90;;;;;;5029537;28;20499;-64
2021/10/10 01:48:36;;;;;;;24.63;19.20;;;4.60;99.90;;;;;;5029850;28;20476;-66
2021/10/10 01:51:04;;;;;;;22.73;19.77;;;4.70;99.90;;;;;;5029675;28;20844;-65
2021/10/10 01:53:31;;;;;;;23.27;19.37;;;4.60;99.90;;;;;;5031034;28;20457;-66
2021/10/10 01:55:59;;;;;;;23.23;19.47;;;4.60;99.90;;;;;;5039023;28;20441;-65
2021/10/10 01:58:25;;;;;;;27.40;21.07;;;4.70;99.90;;;;;;5029224;28;20522;-65
2021/10/10 02:00:52;;;;;;;26.43;21.27;;;4.70;99.90;;;;;;5029159;28;20481;-65
2021/10/10 02:03:19;;;;;;;25.60;18.80;;;4.60;99.90;;;;;;5029617;28;20448;-66
2021/10/10 02:05:46;;;;;;;24.77;18.90;;;4.70;99.90;;;;;;5029600;28;20463;-66
2021/10/10 02:08:13;;;;;;;24.80;19.20;;;4.60;99.90;;;;;;5028850;28;20473;-66
2021/10/10 02:10:40;;;;;;;25.90;20.57;;;4.50;99.90;;;;;;5029512;28;20452;-66
2021/10/10 02:13:08;;;;;;;22.30;18.90;;;4.50;99.90;;;;;;5029734;28;20448;-65
2021/10/10 02:15:35;;;;;;;23.93;20.50;;;4.50;99.90;;;;;;5033272;28;21307;-65
2021/10/10 02:18:01;;;;;;;23.93;18.87;;;4.50;99.90;;;;;;5032959;28;20509;-66
2021/10/10 02:20:28;;;;;;;31.33;20.83;;;4.50;99.90;;;;;;5033166;28;20456;-65
2021/10/10 02:22:55;;;;;;;22.33;18.17;;;4.40;99.90;;;;;;5033081;28;20496;-65
2021/10/10 02:25:22;;;;;;;25.83;18.10;;;4.40;99.90;;;;;;5039816;28;20448;-65
2021/10/10 02:27:49;;;;;;;24.10;18.13;;;4.40;99.90;;;;;;5040156;28;20473;-65
2021/10/10 02:30:17;;;;;;;25.80;20.47;;;4.40;99.90;;;;;;5033210;28;20459;-64
2021/10/10 02:32:44;;;;;;;29.03;20.60;;;4.40;99.90;;;;;;5033571;28;20454;-66
2021/10/10 02:35:11;;;;;;;24.53;19.60;;;4.30;99.90;;;;;;5032923;28;20456;-65
2021/10/10 02:37:38;;;;;;;27.20;18.73;;;4.30;99.90;;;;;;5032642;28;20472;-65
2021/10/10 02:40:06;;;;;;;25.97;19.57;;;4.40;99.90;;;;;;5032711;28;20445;-65
2021/10/10 02:42:33;;;;;;;25.30;20.50;;;4.40;99.90;;;;;;5032920;28;20480;-66
2021/10/10 02:45:00;;;;;;;27.67;19.80;;;4.30;99.90;;;;;;5032688;28;20449;-65
2021/10/10 02:47:28;;;;;;;29.23;20.60;;;4.20;99.90;;;;;;5032418;28;20560;-66
2021/10/10 02:49:55;;;;;;;23.07;18.27;;;4.10;99.90;;;;;;5032532;28;20830;-65
2021/10/10 02:52:23;;;;;;;24.73;18.77;;;4.10;99.90;;;;;;5032731;28;20437;-66
2021/10/10 02:54:50;;;;;;;24.00;18.57;;;4.10;99.90;;;;;;5034344;28;20443;-66
2021/10/10 02:57:17;;;;;;;28.57;19.30;;;4.10;99.90;;;;;;5038905;28;20464;-65
2021/10/10 02:59:44;;;;;;;27.20;19.57;;;4.10;99.90;;;;;;5032584;28;20456;-65
2021/10/10 03:02:11;;;;;;;24.37;18.97;;;4.10;99.90;;;;;;5032408;28;20484;-66
2021/10/10 03:04:39;;;;;;;26.07;17.50;;;4.10;99.90;;;;;;5032393;28;20933;-65
2021/10/10 03:07:06;;;;;;;25.80;19.80;;;4.00;99.90;;;;;;5031855;28;20559;-65
2021/10/10 03:09:33;;;;;;;25.13;19.23;;;4.00;99.90;;;;;;5032428;28;20449;-66
2021/10/10 03:11:59;;;;;;;21.90;17.40;;;3.90;99.90;;;;;;5032350;28;20445;-65
2021/10/10 03:14:26;;;;;;;24.60;19.83;;;3.90;99.90;;;;;;5032260;28;20449;-65
2021/10/10 03:16:53;;;;;;;22.43;18.43;;;4.00;99.90;;;;;;5031808;28;20459;-65
2021/10/10 03:19:20;;;;;;;22.90;18.57;;;4.00;99.90;;;;;;5032373;28;20449;-67
2021/10/10 03:21:48;;;;;;;23.10;18.27;;;4.00;99.90;;;;;;5032194;28;20477;-67
2021/10/10 03:24:15;;;;;;;23.63;17.97;;;4.00;99.90;;;;;;5037824;28;20479;-67
2021/10/10 03:26:42;;;;;;;22.13;17.93;;;3.90;99.90;;;;;;5038828;28;20456;-66
2021/10/10 03:29:08;;;;;;;31.73;18.10;;;3.90;99.90;;;;;;5031906;28;20457;-66
2021/10/10 03:31:35;;;;;;;22.60;18.10;;;3.80;99.90;;;;;;5031972;28;20449;-67
2021/10/10 03:34:02;;;;;;;25.97;20.27;;;3.80;99.90;;;;;;5031789;28;20942;-67
2021/10/10 03:36:29;;;;;;;27.83;19.10;;;3.70;99.90;;;;;;5031397;28;20453;-67
2021/10/10 03:38:57;;;;;;;22.80;17.90;;;3.70;99.90;;;;;;5031495;28;20489;-66
2021/10/10 03:41:24;;;;;;;25.80;19.47;;;3.80;99.90;;;;;;5031937;28;20481;-66
2021/10/10 03:43:51;;;;;;;19.97;17.50;;;3.80;99.90;;;;;;5031746;28;20457;-66
2021/10/10 03:46:17;;;;;;;21.20;16.63;;;3.80;99.90;;;;;;5031353;28;20467;-64
2021/10/10 03:48:44;;;;;;;22.03;17.30;;;3.70;99.90;;;;;;5031528;28;20889;-66
2021/10/10 03:51:11;;;;;;;24.20;19.03;;;3.80;99.90;;;;;;5031573;28;20444;-66
2021/10/10 03:54:01;;;;;;;22.20;17.57;;;3.70;99.90;;;;;;5031633;28;20452;-66
2021/10/10 03:56:29;;;;;;;22.97;17.87;;;3.70;99.90;;;;;;5038314;28;20449;-66
2021/10/10 03:58:56;;;;;;;20.50;16.73;;;3.70;99.90;;;;;;5034274;28;20843;-66
2021/10/10 04:01:23;;;;;;;25.50;17.53;;;3.60;99.90;;;;;;5031289;28;20543;-66
2021/10/10 04:03:50;;;;;;;24.70;16.70;;;3.60;99.90;;;;;;5031360;28;20462;-68
2021/10/10 04:06:16;;;;;;;22.80;17.17;;;3.60;99.90;;;;;;5031270;28;20448;-66
2021/10/10 04:08:44;;;;;;;25.20;17.60;;;3.60;99.90;;;;;;5031857;28;20469;-66
2021/10/10 04:11:11;;;;;;;21.13;17.27;;;3.70;99.90;;;;;;5031396;28;20945;-66
2021/10/10 04:13:39;;;;;;;24.00;16.03;;;3.70;99.90;;;;;;5031449;28;20531;-67
2021/10/10 04:16:07;;;;;;;23.13;17.67;;;3.60;99.90;;;;;;5031087;28;20449;-66
2021/10/10 04:18:36;;;;;;;22.83;17.50;;;3.60;99.90;;;;;;5030909;28;20465;-66
2021/10/10 04:21:04;;;;;;;25.03;17.90;;;3.60;99.90;;;;;;5030970;28;20476;-67
2021/10/10 04:23:31;;;;;;;23.30;18.07;;;3.50;99.90;;;;;;5030987;28;20550;-67
2021/10/10 04:25:57;;;;;;;23.97;18.67;;;3.50;99.90;;;;;;5034948;28;20467;-66
2021/10/10 04:28:24;;;;;;;24.07;18.90;;;3.50;99.90;;;;;;5030351;28;20480;-66
2021/10/10 04:30:52;;;;;;;23.43;17.63;;;3.40;99.90;;;;;;5030573;28;20452;-66
2021/10/10 04:33:19;;;;;;;22.77;17.20;;;3.40;99.90;;;;;;5030958;28;20451;-67
2021/10/10 04:35:48;;;;;;;22.37;17.87;;;3.40;99.90;;;;;;5030764;28;20456;-67
2021/10/10 04:38:15;;;;;;;24.33;18.00;;;3.40;99.90;;;;;;5030241;28;20484;-67
2021/10/10 04:40:42;;;;;;;21.70;17.53;;;3.40;99.90;;;;;;5030586;28;20965;-66
2021/10/10 04:43:10;;;;;;;23.20;17.70;;;3.40;99.90;;;;;;5030222;28;20487;-67
2021/10/10 04:45:37;;;;;;;23.23;18.50;;;3.40;99.90;;;;;;5030433;28;20972;-67
2021/10/10 04:48:05;;;;;;;23.60;17.60;;;3.40;99.90;;;;;;5030155;28;20469;-66
2021/10/10 04:50:32;;;;;;;25.50;19.77;;;3.40;99.90;;;;;;5030904;28;20823;-66
2021/10/10 04:52:59;;;;;;;25.30;18.80;;;3.50;99.90;;;;;;5030212;28;20449;-67
2021/10/10 04:55:26;;;;;;;24.63;17.73;;;3.60;99.90;;;;;;5029505;28;20959;-66
2021/10/10 04:57:53;;;;;;;21.03;16.70;;;3.60;99.90;;;;;;5035359;28;20475;-66
2021/10/10 05:00:20;;;;;;;21.93;17.77;;;3.60;99.90;;;;;;5029906;28;20464;-67
2021/10/10 05:02:46;;;;;;;25.00;18.73;;;3.50;99.90;;;;;;5030235;28;20487;-66
2021/10/10 05:05:14;;;;;;;21.70;17.00;;;3.50;99.90;;;;;;5030017;28;20445;-67
2021/10/10 05:07:41;;;;;;;25.10;18.03;;;3.40;99.90;;;;;;5029878;28;20512;-67
2021/10/10 05:10:09;;;;;;;20.87;16.70;;;3.40;99.90;;;;;;5029748;28;20449;-68
2021/10/10 05:12:36;;;;;;;22.50;17.20;;;3.30;99.90;;;;;;5029842;28;20674;-67
2021/10/10 05:15:04;;;;;;;19.50;16.87;;;3.30;99.90;;;;;;5029889;28;20539;-67
2021/10/10 05:17:30;;;;;;;24.97;18.57;;;3.30;99.90;;;;;;5029780;28;20468;-67
2021/10/10 05:19:57;;;;;;;27.13;18.90;;;3.20;99.90;;;;;;5029785;28;20455;-65
2021/10/10 05:22:26;;;;;;;22.60;16.83;;;3.20;99.90;;;;;;5029724;28;20481;-65
2021/10/10 05:24:54;;;;;;;23.00;18.43;;;3.20;99.90;;;;;;5030924;28;20456;-67
2021/10/10 05:27:21;;;;;;;24.50;17.20;;;3.20;99.90;;;;;;5040916;28;20890;-67
2021/10/10 05:29:48;;;;;;;24.03;17.50;;;3.10;99.90;;;;;;5030007;28;20454;-67
2021/10/10 05:32:15;;;;;;;24.70;19.10;;;3.20;99.90;;;;;;5029596;28;20449;-66
2021/10/10 05:34:42;;;;;;;26.00;17.20;;;3.20;99.90;;;;;;5029880;28;20474;-67
2021/10/10 05:37:08;;;;;;;22.57;16.73;;;3.00;99.90;;;;;;5029333;28;20469;-67
2021/10/10 05:39:37;;;;;;;24.30;18.60;;;3.00;99.90;;;;;;5029494;28;20465;-68
2021/10/10 05:42:04;;;;;;;25.10;18.40;;;2.90;99.90;;;;;;5029524;28;20484;-67
2021/10/10 05:44:30;;;;;;;22.07;17.33;;;3.00;99.90;;;;;;5029968;28;20528;-67
2021/10/10 05:46:57;;;;;;;22.80;16.63;;;3.00;99.90;;;;;;5029080;28;20472;-66
2021/10/10 05:49:24;;;;;;;21.23;16.33;;;3.10;99.90;;;;;;5028930;28;20453;-67
2021/10/10 05:51:51;;;;;;;20.80;16.60;;;3.00;99.90;;;;;;5029502;28;20453;-68
2021/10/10 05:54:18;;;;;;;25.47;17.97;;;3.00;99.90;;;;;;5034556;28;20453;-67
2021/10/10 05:56:46;;;;;;;23.20;17.50;;;3.10;99.90;;;;;;5027695;28;20542;-67
2021/10/10 05:59:15;;;;;;;25.70;18.63;;;3.10;99.90;;;;;;5029306;28;20966;-68
2021/10/10 06:01:42;;;;;;;24.17;18.13;;;3.10;99.90;;;;;;5029870;28;20445;-67
2021/10/10 06:04:09;;;;;;;29.60;19.30;;;3.10;99.90;;;;;;5029409;28;20476;-67
2021/10/10 06:06:36;;;;;;;20.70;16.00;;;3.10;99.90;;;;;;5029161;28;20467;-67
2021/10/10 06:09:05;;;;;;;19.27;15.47;;;3.20;99.90;;;;;;5029553;28;20453;-67
2021/10/10 06:11:32;;;;;;;22.73;15.80;;;3.30;99.90;;;;;;5029398;28;20894;-67
2021/10/10 06:14:01;;;;;;;21.00;17.50;;;3.30;99.90;;;;;;5029225;28;20453;-67
2021/10/10 06:16:28;;;;;;;18.83;15.77;;;3.30;99.90;;;;;;5029103;28;20453;-67
2021/10/10 06:18:55;;;;;;;20.50;16.20;;;3.40;99.90;;;;;;5029004;28;21091;-67
2021/10/10 06:21:22;;;;;;;21.50;17.27;;;3.40;99.90;;;;;;5029087;28;20449;-66
2021/10/10 06:23:49;;;;;;;21.73;17.07;;;3.50;99.90;;;;;;5029157;28;20484;-67
2021/10/10 06:26:15;;;;;;;21.90;17.63;;;3.50;99.90;;;;;;5039741;28;20475;-67
2021/10/10 06:28:42;;;;;;;21.27;16.40;;;3.50;99.90;;;;;;5032376;28;20480;-67
2021/10/10 06:31:10;;;;;;;27.70;15.67;;;3.60;99.90;;;;;;5029052;28;20453;-67
2021/10/10 06:33:37;;;;;;;27.70;17.93;;;3.60;99.90;;;;;;5029040;28;20986;-66
2021/10/10 06:36:05;;;;;;;21.83;16.70;;;3.70;99.90;;;;;;5028924;28;20576;-66
2021/10/10 06:38:32;;;;;;;22.83;17.60;;;3.80;99.90;;;;;;5028849;28;20484;-66
2021/10/10 06:40:59;;;;;;;21.30;16.47;;;3.90;99.90;;;;;;5029165;28;20540;-66
2021/10/10 06:43:26;;;;;;;23.90;17.50;;;4.00;99.90;;;;;;5029161;28;20577;-66
2021/10/10 06:45:53;;;;;;;21.33;16.70;;;4.10;99.90;;;;;;5029130;28;20449;-66
2021/10/10 06:48:21;;;;;;;19.70;15.90;;;4.10;99.90;;;;;;5028796;28;20961;-66
2021/10/10 06:50:48;;;;;;;22.90;16.33;;;4.10;99.90;;;;;;5029306;28;20456;-66
2021/10/10 06:53:15;;;;;;;24.63;17.80;;;4.20;99.90;;;;;;5028027;28;20930;-66
2021/10/10 06:55:42;;;;;;;20.67;16.33;;;4.40;99.90;;;;;;5028706;28;20445;-67
2021/10/10 06:58:08;;;;;;;25.63;15.60;;;4.40;99.90;;;;;;5034040;28;20468;-66
2021/10/10 07:00:35;;;;;;;20.93;16.13;;;4.50;99.90;;;;;;5037201;28;20548;-67
2021/10/10 07:03:02;;;;;;;19.20;16.07;;;4.50;99.90;;;;;;5032056;28;20481;-67
2021/10/10 07:05:30;;;;;;;21.30;16.83;;;4.70;99.90;;;;;;5030853;28;20459;-66
2021/10/10 07:07:57;;;;;;;21.17;17.37;;;4.80;99.90;;;;;;5031715;28;20471;-67
2021/10/10 07:10:24;;;;;;;20.50;17.20;;;4.90;99.90;;;;;;5031464;28;20544;-68
2021/10/10 07:12:51;;;;;;;21.67;17.20;;;5.10;99.90;;;;;;5032055;28;20452;-68
2021/10/10 07:15:18;;;;;;;21.00;17.13;;;5.30;99.90;;;;;;5031961;28;20449;-66
2021/10/10 07:17:58;;;;;;;20.57;16.50;;;5.20;99.90;;;;;;5031796;28;20471;-67
2021/10/10 07:20:28;;;;;;;21.73;16.63;;;5.30;99.90;;;;;;5032171;28;20456;-67
2021/10/10 07:23:12;;;;;;;25.37;19.80;;;5.30;99.90;;;;;;5032009;28;20484;-67
2021/10/10 07:25:38;;;;;;;26.60;18.40;;;5.40;99.90;;;;;;5038949;28;20539;-68
2021/10/10 07:28:05;;;;;;;22.30;17.73;;;5.50;99.90;;;;;;5031811;28;20469;-68
2021/10/10 07:30:32;;;;;;;19.67;16.40;;;5.60;99.90;;;;;;5032180;28;20823;-67
2021/10/10 07:32:59;;;;;;;21.43;18.23;;;5.70;99.90;;;;;;5032141;28;20519;-67
2021/10/10 07:35:26;;;;;;;22.10;17.97;;;5.70;99.90;;;;;;5031933;28;20455;-67
2021/10/10 07:37:52;;;;;;;21.73;16.30;;;5.90;99.90;;;;;;5031022;28;20478;-67
2021/10/10 07:40:21;;;;;;;18.07;15.53;;;6.00;99.90;;;;;;5031455;28;20825;-68
2021/10/10 07:42:47;;;;;;;18.10;15.37;;;6.20;99.90;;;;;;5031737;28;20491;-67
2021/10/10 07:45:18;;;;;;;24.30;16.80;;;6.40;99.90;;;;;;5031450;28;20460;-67
2021/10/10 07:47:49;;;;;;;19.20;16.80;;;6.40;99.90;;;;;;5031266;28;20910;-67
2021/10/10 07:50:16;;;;;;;19.43;17.33;;;6.60;99.90;;;;;;5025204;28;20448;-69
2021/10/10 07:52:44;;;;;;;22.60;18.27;;;6.70;99.90;;;;;;5018607;28;20819;-65
2021/10/10 07:55:11;;;;;;;20.10;17.03;;;6.80;99.90;;;;;;5027710;28;20460;-66
2021/10/10 07:57:40;;;;;;;20.00;16.90;;;6.80;99.90;;;;;;5037180;28;20461;-66
2021/10/10 08:00:09;;;;;;;19.93;16.80;;;7.00;99.90;;;;;;5024826;28;21208;-65
2021/10/10 08:02:49;;;;;;;21.27;18.67;;;7.10;99.90;;;;;;5023738;28;20446;-67
2021/10/10 08:05:16;;;;;;;19.47;16.47;;;7.10;99.90;;;;;;5031181;28;20210;-65
2021/10/10 08:07:43;;;;;;;20.30;16.30;;;7.20;99.90;;;;;;5030681;28;20991;-65
2021/10/10 08:10:10;;;;;;;18.10;16.20;;;7.40;99.90;;;;;;5031326;28;20457;-66
2021/10/10 08:12:36;;;;;;;19.80;17.60;;;7.50;99.90;;;;;;5030684;28;20449;-65
2021/10/10 08:15:06;;;;;;;23.70;17.70;;;7.60;99.90;;;;;;5030873;28;20461;-66
2021/10/10 08:17:33;;;;;;;21.47;16.47;;;7.70;99.90;;;;;;5036696;28;20478;-66
2021/10/10 08:20:00;;;;;;;21.83;16.97;;;7.90;99.90;;;;;;5038024;28;20528;-66
2021/10/10 08:22:27;;;;;;;23.50;17.07;;;8.00;99.90;;;;;;5042036;28;20527;-66
2021/10/10 08:24:53;;;;;;;21.07;17.00;;;8.00;99.90;;;;;;5037949;28;20444;-66
2021/10/10 08:27:21;;;;;;;18.70;16.00;;;8.10;99.90;;;;;;5038263;28;20472;-66
2021/10/10 08:29:48;;;;;;;21.50;16.50;;;8.20;99.90;;;;;;5039657;28;20530;-65
2021/10/10 08:32:17;;;;;;;20.37;18.17;;;8.40;99.90;;;;;;5034654;28;20453;-66
2021/10/10 08:34:43;;;;;;;18.13;15.43;;;8.50;99.90;;;;;;5029057;28;20441;-68
2021/10/10 08:37:10;;;;;;;21.80;16.77;;;8.60;99.90;;;;;;5029310;28;20825;-67
2021/10/10 08:39:37;;;;;;;22.63;17.53;;;8.80;99.90;;;;;;5035658;28;20547;-67
2021/10/10 08:42:08;;;;;;;21.63;16.23;;;9.00;99.90;;;;;;5040567;28;20442;-66
2021/10/10 08:44:40;;;;;;;17.80;15.90;;;9.20;99.90;;;;;;5030007;28;20493;-67
2021/10/10 08:47:14;;;;;;;20.17;15.47;;;9.40;99.90;;;;;;5029208;28;20564;-67
2021/10/10 08:49:43;;;;;;;20.23;15.20;;;9.40;99.90;;;;;;5030230;28;20514;-66
2021/10/10 08:52:11;;;;;;;19.20;14.87;;;9.40;99.90;;;;;;5034818;28;20453;-67
2021/10/10 08:54:38;;;;;;;19.93;16.37;;;9.50;99.90;;;;;;5035766;28;20445;-67
2021/10/10 08:57:08;;;;;;;20.00;15.97;;;9.60;99.90;;;;;;5037034;28;20474;-67
2021/10/10 08:59:38;;;;;;;19.33;15.50;;;9.70;99.90;;;;;;5040051;28;20966;-66
2021/10/10 09:02:09;;;;;;;19.23;16.83;;;9.80;99.90;;;;;;5029755;28;21153;-66
2021/10/10 09:04:40;;;;;;;23.53;16.17;;;10.00;99.90;;;;;;5028538;28;20566;-67
2021/10/10 09:07:08;;;;;;;18.63;15.20;;;10.10;99.90;;;;;;5036496;28;20849;-67
2021/10/10 09:09:36;;;;;;;19.57;16.37;;;10.20;99.90;;;;;;5034686;28;20947;-67
2021/10/10 09:12:06;;;;;;;18.87;15.87;;;10.20;99.90;;;;;;5039560;28;20456;-65
2021/10/10 09:14:43;;;;;;;22.03;16.80;;;10.30;99.90;;;;;;5037289;28;20444;-68
2021/10/10 09:17:14;;;;;;;18.77;14.50;;;10.70;99.90;;;;;;5029413;28;20472;-67
2021/10/10 09:19:48;;;;;;;18.90;15.40;;;10.90;99.90;;;;;;5032125;28;20447;-67
2021/10/10 09:22:17;;;;;;;18.20;15.90;;;11.20;99.90;;;;;;5021300;28;20456;-67
2021/10/10 09:24:44;;;;;;;20.33;16.30;;;11.50;99.90;;;;;;5032084;28;20575;-66
2021/10/10 09:27:13;;;;;;;18.70;15.17;;;11.90;99.90;;;;;;5027057;28;20477;-66
2021/10/10 09:29:42;;;;;;;16.93;14.70;;;12.20;99.90;;;;;;5039123;28;20447;-66
2021/10/10 09:32:13;;;;;;;17.93;14.70;;;12.50;99.90;;;;;;5026979;28;20458;-67
2021/10/10 09:34:42;;;;;;;16.47;13.60;;;12.90;99.90;;;;;;5038416;28;20498;-66
2021/10/10 09:37:13;;;;;;;18.60;15.40;;;13.30;99.90;;;;;;5036533;28;20906;-67
2021/10/10 09:39:44;;;;;;;16.83;13.93;;;13.80;99.90;;;;;;5035454;28;20461;-65
2021/10/10 09:42:11;;;;;;;18.00;14.57;;;14.20;99.90;;;;;;5037412;28;20445;-66
2021/10/10 09:44:47;;;;;;;16.87;13.97;;;14.50;99.90;;;;;;5029351;28;20490;-67
2021/10/10 09:47:16;;;;;;;17.53;14.80;;;14.80;99.90;;;;;;5034412;28;20471;-65
2021/10/10 09:49:43;;;;;;;18.07;14.80;;;14.90;99.90;;;;;;5041957;28;20454;-65
2021/10/10 09:52:13;;;;;;;16.53;14.73;;;14.60;99.90;;;;;;5037725;28;20454;-63
2021/10/10 09:54:53;;;;;;;20.73;13.47;;;14.70;99.90;;;;;;5039190;28;20448;-62
2021/10/10 09:57:21;;;;;;;17.63;14.50;;;14.70;99.90;;;;;;5035164;28;20465;-62
2021/10/10 09:59:48;;;;;;;16.80;14.10;;;15.20;99.90;;;;;;5023972;28;20446;-66
2021/10/10 10:02:15;;;;;;;14.33;12.90;;;15.50;99.90;;;;;;5019356;28;20447;-67
2021/10/10 10:04:44;;;;;;;15.67;12.60;;;15.90;99.90;;;;;;5028045;28;20547;-61
2021/10/10 10:07:12;;;;;;;15.63;13.53;;;16.40;99.90;;;;;;5034877;28;20472;-62
2021/10/10 10:09:39;;;;;;;14.67;12.50;;;16.60;99.90;;;;;;5020794;28;20934;-62
2021/10/10 10:12:08;;;;;;;14.97;11.80;;;17.20;99.90;;;;;;5024597;28;20452;-62
2021/10/10 10:14:35;;;;;;;15.23;12.37;;;17.60;99.30;;;;;;5027054;28;20931;-66
2021/10/10 10:17:04;;;;;;;14.40;12.80;;;18.00;99.00;;;;;;5019742;28;20535;-66
2021/10/10 10:19:32;;;;;;;18.47;14.87;;;18.20;99.00;;;;;;5017656;28;20510;-66
2021/10/10 10:21:59;;;;;;;18.33;14.47;;;18.20;97.80;;;;;;5015576;28;20442;-65
2021/10/10 10:24:30;;;;;;;17.53;14.73;;;17.90;98.20;;;;;;5024460;28;20480;-66
2021/10/10 10:26:57;;;;;;;17.47;14.37;;;17.40;97.20;;;;;;5012374;28;20441;-67
2021/10/10 10:29:31;;;;;;;16.33;13.80;;;17.60;99.50;;;;;;5019619;28;20441;-67
2021/10/10 10:32:01;;;;;;;17.60;13.97;;;18.10;97.00;;;;;;5020493;28;21124;-68
2021/10/10 10:34:29;;;;;;;17.07;12.47;;;17.60;98.20;;;;;;5029998;22;20500;-66
2021/10/10 10:36:59;;;;;;;14.27;12.83;;;17.90;98.40;;;;;;5022250;28;20843;-66
2021/10/10 10:39:44;;;;;;;15.43;13.83;;;18.00;96.00;;;;;;5037318;28;20448;-66
2021/10/10 10:42:13;;;;;;;15.80;13.93;;;18.60;95.00;;;;;;5036163;28;20437;-66
2021/10/10 10:44:43;;;;;;;16.90;14.53;;;18.60;95.00;;;;;;5014342;28;20485;-65
2021/10/10 10:47:13;;;;;;;13.70;12.27;;;18.20;95.40;;;;;;5024185;28;20449;-66
2021/10/10 10:50:04;;;;;;;15.00;12.77;;;18.60;96.50;;;;;;5035372;28;20465;-67
2021/10/10 10:52:34;;;;;;;16.43;13.37;;;19.30;95.10;;;;;;5038803;28;20448;-69
2021/10/10 10:55:16;;;;;;;16.87;12.83;;;19.00;93.90;;;;;;5039799;28;20433;-64
2021/10/10 10:57:48;;;;;;;15.20;11.70;;;19.50;94.30;;;;;;5029905;28;20443;-65
2021/10/10 11:00:23;;;;;;;13.83;12.20;;;20.40;93.70;;;;;;5031704;28;20441;-66
2021/10/10 11:02:52;;;;;;;14.90;12.67;;;19.90;91.60;;;;;;5031065;28;20888;-66
2021/10/10 11:05:46;;;;;;;15.20;12.53;;;19.00;92.40;;;;;;5031415;28;20990;-66
2021/10/10 11:08:39;;;;;;;17.93;15.87;;;18.60;93.20;;;;;;5030978;28;20460;-67
2021/10/10 11:11:23;;;;;;;16.40;13.63;;;19.10;94.90;;;;;;5031288;28;20449;-68
2021/10/10 11:13:54;;;;;;;14.80;13.30;;;20.00;93.80;;;;;;5027928;28;20550;-68
2021/10/10 11:16:29;;;;;;;16.80;12.87;;;21.20;92.80;;;;;;5030986;28;20987;-65
2021/10/10 11:18:58;;;;;;;14.20;12.50;;;22.00;90.70;;;;;;5031007;28;20448;-65
2021/10/10 11:21:26;;;;;;;14.80;12.20;;;22.70;85.50;;;;;;5036385;28;21004;-65
2021/10/10 11:23:55;;;;;;;15.43;13.83;;;23.60;82.80;;;;;;5041059;28;21019;-65
2021/10/10 11:26:23;;;;;;;14.70;12.03;;;22.80;78.40;;;;;;5034398;28;20473;-65
2021/10/10 11:28:52;;;;;;;15.03;11.60;;;22.40;81.70;;;;;;5017124;28;20438;-65
2021/10/10 11:31:21;;;;;;;13.00;11.00;;;22.30;84.90;;;;;;5010518;28;20446;-63
2021/10/10 11:33:55;;;;;;;12.87;11.50;;;22.70;81.00;;;;;;5010748;28;21164;-65
2021/10/10 11:36:32;;;;;;;12.17;10.90;;;23.40;83.50;;;;;;5029269;28;20448;-68
2021/10/10 11:38:59;;;;;;;13.10;11.80;;;24.00;80.30;;;;;;5040920;28;20534;-65
2021/10/10 11:41:27;;;;;;;13.13;11.80;;;24.70;76.00;;;;;;5039633;28;20540;-67
2021/10/10 11:43:55;;;;;;;13.83;10.40;;;25.00;71.70;;;;;;5033343;28;21049;-66
2021/10/10 11:46:22;;;;;;;12.23;11.03;;;25.80;72.70;;;;;;5035696;28;20444;-66
2021/10/10 11:48:52;;;;;;;13.07;11.30;;;26.10;70.30;;;;;;5038777;28;20444;-65
2021/10/10 11:51:32;;;;;;;11.57;10.37;;;25.90;66.20;;;;;;5039661;28;20437;-66
2021/10/10 11:53:59;;;;;;;14.03;10.40;;;26.30;67.80;;;;;;5028925;28;20465;-66
2021/10/10 11:56:25;;;;;;;13.40;9.47;;;26.60;64.30;;;;;;5028717;28;20460;-66
2021/10/10 11:58:52;;;;;;;11.17;9.73;;;27.20;64.10;;;;;;5029314;28;20992;-66
2021/10/10 12:01:19;;;;;;;14.17;10.73;;;27.80;62.50;;;;;;5029241;28;20471;-66
2021/10/10 12:03:46;;;;;;;11.17;10.07;;;27.20;57.30;;;;;;5029649;28;20503;-66
2021/10/10 12:06:19;;;;;;;12.53;9.87;;;27.10;61.30;;;;;;5029260;28;20449;-66
2021/10/10 12:08:47;;;;;;;17.23;10.63;;;27.70;58.90;;;;;;5029289;28;20456;-66
2021/10/10 12:11:14;;;;;;;11.80;10.60;;;28.30;58.60;;;;;;5028918;28;20440;-66
2021/10/10 12:13:56;;;;;;;11.80;10.60;;;28.40;55.30;;;;;;5028669;28;20468;-66
2021/10/10 12:16:24;;;;;;;12.60;10.80;;;27.30;57.90;;;;;;5025808;28;20480;-66
2021/10/10 12:18:57;;;;;;;12.60;11.30;;;26.40;58.90;;;;;;5028583;28;20528;-66
2021/10/10 12:21:28;;;;;;;12.00;10.43;;;26.10;59.20;;;;;;5029097;28;20444;-66
2021/10/10 12:24:10;;;;;;;13.90;12.50;;;25.20;59.70;;;;;;5028986;28;20492;-66
2021/10/10 12:26:47;;;;;;;12.17;10.70;;;24.00;61.50;;;;;;5028759;28;20536;-66
2021/10/10 12:29:22;;;;;;;11.00;9.90;;;24.80;63.90;;;;;;5028756;28;20495;-66
2021/10/10 12:31:48;;;;;;;12.87;10.17;;;25.40;62.00;;;;;;5029099;28;20448;-66
2021/10/10 12:34:16;;;;;;;11.37;10.13;;;25.90;63.30;;;;;;5028972;28;20545;-66
2021/10/10 12:36:45;;;;;;;15.07;10.63;;;26.60;60.10;;;;;;5028722;28;20449;-66
2021/10/10 12:39:12;;;;;;;12.17;10.60;;;26.60;59.60;;;;;;5029012;28;20451;-66